Time;durP1;ratioP1;P1;durP2;ratioP2;P2;SDS_P1;SDS_P2;PMS_P1;PMS_P2;Temp;Humidity;BMP_temperature;BMP_pressure;BME280_temperature;BME280_humidity;BME280_pressure;Samples;Min_cycle;Max_cycle;Signal;HPM_P1;HPM_P2
2022/12/16 00:01:45;;;;;;;;;;;-2.00;99.90;;;;;;5100525;28;20046;-71
2022/12/16 00:04:11;;;;;;;;;;;-1.80;99.90;;;;;;5098139;28;19969;-72
2022/12/16 00:06:36;;;;;;;;;;;-1.50;99.90;;;;;;5109155;28;19916;-75
2022/12/16 00:09:02;;;;;;;;;;;-1.30;99.90;;;;;;5097505;28;20192;-72
2022/12/16 00:11:27;;;;;;;;;;;-1.10;99.90;;;;;;5098572;28;19909;-76
2022/12/16 00:13:53;;;;;;;;;;;-0.90;99.90;;;;;;5099298;28;19977;-72
2022/12/16 00:16:19;;;;;;;;;;;-0.80;99.90;;;;;;5098097;28;20184;-72
2022/12/16 00:18:45;;;;;;;;;;;-0.70;99.90;;;;;;5101562;28;19951;-71
2022/12/16 00:21:11;;;;;;;;;;;-0.50;99.90;;;;;;5099074;28;19965;-73
2022/12/16 00:23:43;;;;;;;;;;;0.00;99.90;;;;;;5098141;28;19916;-75
2022/12/16 00:26:09;;;;;;;;;;;0.20;99.90;;;;;;5103646;28;20248;-72
2022/12/16 00:28:35;;;;;;;;;;;0.30;99.90;;;;;;5103412;28;19908;-73
2022/12/16 00:31:00;;;;;;;;;;;0.40;99.90;;;;;;5100688;28;19966;-73
2022/12/16 00:33:26;;;;;;;;;;;0.50;99.90;;;;;;5102572;28;19916;-78
2022/12/16 00:35:52;;;;;;;;;;;0.70;99.90;;;;;;5107151;28;19988;-75
2022/12/16 00:38:18;;;;;;;;;;;0.90;99.90;;;;;;5102394;28;20265;-75
2022/12/16 00:40:43;;;;;;;;;;;0.90;99.90;;;;;;5101424;28;19926;-73
2022/12/16 00:43:09;;;;;;;;;;;0.90;99.90;;;;;;5089343;27;20580;-73
2022/12/16 00:45:35;;;;;;;;;;;0.90;99.90;;;;;;5096533;28;20226;-73
2022/12/16 00:48:00;;;;;;;;;;;1.00;99.90;;;;;;5113463;28;20336;-74
2022/12/16 00:50:26;;;;;;;;;;;1.00;99.90;;;;;;5115073;28;19912;-76
2022/12/16 00:52:52;;;;;;;;;;;1.10;99.90;;;;;;5119071;27;20378;-73
2022/12/16 00:55:18;;;;;;;;;;;1.00;99.90;;;;;;5097519;28;19923;-77
2022/12/16 00:57:44;;;;;;;;;;;1.10;99.90;;;;;;5099498;28;19912;-75
2022/12/16 01:00:11;;;;;;;;;;;1.10;99.90;;;;;;5103186;28;19926;-75
2022/12/16 01:02:39;;;;;;;;;;;1.10;99.90;;;;;;5110747;28;19951;-73
2022/12/16 01:05:04;;;;;;;;;;;1.20;99.90;;;;;;5115071;28;19919;-73
2022/12/16 01:07:30;;;;;;;;;;;1.30;99.90;;;;;;5107034;28;19916;-73
2022/12/16 01:09:55;;;;;;;;;;;1.30;99.90;;;;;;5103719;28;20298;-77
2022/12/16 01:12:21;;;;;;;;;;;1.30;99.90;;;;;;5101913;28;20176;-75
2022/12/16 01:14:46;;;;;;;;;;;1.30;99.90;;;;;;5096421;28;19918;-76
2022/12/16 01:17:12;;;;;;;;;;;1.30;99.90;;;;;;5107095;28;19918;-75
2022/12/16 01:19:37;;;;;;;;;;;1.30;99.90;;;;;;5109001;28;19999;-76
2022/12/16 01:22:03;;;;;;;;;;;1.20;99.90;;;;;;5096465;28;20271;-75
2022/12/16 01:24:29;;;;;;;;;;;1.20;99.90;;;;;;5102119;28;19916;-77
2022/12/16 01:26:54;;;;;;;;;;;1.20;99.90;;;;;;5103019;28;19918;-73
2022/12/16 01:29:20;;;;;;;;;;;1.30;99.90;;;;;;5099477;28;19915;-73
2022/12/16 01:31:45;;;;;;;;;;;1.30;99.90;;;;;;5101113;28;20359;-75
2022/12/16 01:34:11;;;;;;;;;;;1.30;99.90;;;;;;5101799;28;19916;-73
2022/12/16 01:36:36;;;;;;;;;;;1.30;99.90;;;;;;5103475;28;20222;-76
2022/12/16 01:39:02;;;;;;;;;;;1.30;99.90;;;;;;5095737;28;20310;-77
2022/12/16 01:41:27;;;;;;;;;;;1.20;99.90;;;;;;5106953;28;19912;-77
2022/12/16 01:44:10;;;;;;;;;;;1.20;99.90;;;;;;5102173;28;20330;-75
2022/12/16 01:46:37;;;;;;;;;;;1.20;99.90;;;;;;5143516;27;19951;-77
2022/12/16 01:49:07;;;;;;;;;;;1.30;99.90;;;;;;5111282;28;19912;-76
2022/12/16 01:51:34;;;;;;;;;;;1.30;99.90;;;;;;5099671;27;19915;-73
2022/12/16 01:54:20;;;;;;;;;;;1.40;99.90;;;;;;5103420;27;19920;-74
2022/12/16 01:56:49;;;;;;;;;;;1.40;99.90;;;;;;5105036;28;19926;-76
2022/12/16 01:59:16;;;;;;;;;;;1.50;99.90;;;;;;5095682;28;20573;-76
2022/12/16 02:01:41;;;;;;;;;;;1.50;99.90;;;;;;5106090;28;19912;-76
2022/12/16 02:04:07;;;;;;;;;;;1.50;99.90;;;;;;5102501;28;19918;-76
2022/12/16 02:06:32;;;;;;;;;;;1.50;99.90;;;;;;5112192;28;19949;-75
2022/12/16 02:08:59;;;;;;;;;;;1.40;99.90;;;;;;5102157;28;19915;-77
2022/12/16 02:11:31;;;;;;;;;;;1.50;99.90;;;;;;5093626;28;19916;-76
2022/12/16 02:14:00;;;;;;;;;;;1.50;99.90;;;;;;5097693;28;19922;-74
2022/12/16 02:16:28;;;;;;;;;;;1.40;99.90;;;;;;5097583;28;20363;-72
2022/12/16 02:18:56;;;;;;;;;;;1.40;99.90;;;;;;5104477;28;19919;-76
2022/12/16 02:21:29;;;;;;;;;;;1.40;99.90;;;;;;5107854;28;19908;-72
2022/12/16 02:24:00;;;;;;;;;;;1.40;99.90;;;;;;5113343;28;20306;-77
2022/12/16 02:26:29;;;;;;;;;;;1.40;99.90;;;;;;5108905;28;19950;-76
2022/12/16 02:28:54;;;;;;;;;;;1.40;99.90;;;;;;5098994;28;19912;-77
2022/12/16 02:31:29;;;;;;;;;;;1.40;99.90;;;;;;5108639;28;20019;-72
2022/12/16 02:34:00;;;;;;;;;;;1.30;99.90;;;;;;5094611;28;19916;-77
2022/12/16 02:36:29;;;;;;;;;;;1.40;99.90;;;;;;5096615;28;19911;-76
2022/12/16 02:38:59;;;;;;;;;;;1.30;99.90;;;;;;5103073;28;19916;-76
2022/12/16 02:41:36;;;;;;;;;;;1.30;99.90;;;;;;5095506;28;19916;-73
2022/12/16 02:44:06;;;;;;;;;;;1.20;99.90;;;;;;5097051;28;19916;-77
2022/12/16 02:46:37;;;;;;;;;;;1.20;99.90;;;;;;5103232;28;19965;-76
2022/12/16 02:49:07;;;;;;;;;;;1.20;99.90;;;;;;5098545;28;19916;-76
2022/12/16 02:51:34;;;;;;;;;;;1.10;99.90;;;;;;5097214;28;20295;-76
2022/12/16 02:54:00;;;;;;;;;;;1.00;99.90;;;;;;5096144;27;20333;-73
2022/12/16 02:56:28;;;;;;;;;;;1.00;99.90;;;;;;5112265;28;19963;-76
2022/12/16 02:59:13;;;;;;;;;;;1.00;99.90;;;;;;5099048;27;19923;-76
2022/12/16 03:02:04;;;;;;;;;;;1.00;99.90;;;;;;5109677;28;20027;-73
2022/12/16 03:04:34;;;;;;;;;;;1.00;99.90;;;;;;5112989;27;20222;-73
2022/12/16 03:07:00;;;;;;;;;;;1.00;99.90;;;;;;5103387;28;19911;-76
2022/12/16 03:09:28;;;;;;;;;;;1.00;99.90;;;;;;5096154;28;20230;-75
2022/12/16 03:11:55;;;;;;;;;;;1.00;99.90;;;;;;5094280;28;19908;-75
2022/12/16 03:14:22;;;;;;;;;;;1.10;99.90;;;;;;5097166;28;20010;-76
2022/12/16 03:16:48;;;;;;;;;;;1.00;99.90;;;;;;5103879;28;19919;-75
2022/12/16 03:19:13;;;;;;;;;;;1.10;99.90;;;;;;5110726;28;20296;-75
2022/12/16 03:21:59;;;;;;;;;;;1.00;99.90;;;;;;5101822;28;20014;-76
2022/12/16 03:24:25;;;;;;;;;;;1.00;99.90;;;;;;5093568;28;19960;-76
2022/12/16 03:27:01;;;;;;;;;;;0.90;99.90;;;;;;5101780;28;19912;-73
2022/12/16 03:29:35;;;;;;;;;;;0.80;99.90;;;;;;5111733;28;19951;-75
2022/12/16 03:32:03;;;;;;;;;;;0.70;99.90;;;;;;5106336;28;20295;-73
2022/12/16 03:34:34;;;;;;;;;;;0.70;99.90;;;;;;5098583;28;20294;-74
2022/12/16 03:37:04;;;;;;;;;;;0.70;99.90;;;;;;5099933;28;20060;-76
2022/12/16 03:39:33;;;;;;;;;;;0.40;99.90;;;;;;5106104;28;20310;-75
2022/12/16 03:41:59;;;;;;;;;;;0.50;99.90;;;;;;5105328;28;20214;-75
2022/12/16 03:44:25;;;;;;;;;;;0.50;99.90;;;;;;5102179;28;20008;-75
2022/12/16 03:46:51;;;;;;;;;;;0.50;99.90;;;;;;5100488;28;19978;-73
2022/12/16 03:49:17;;;;;;;;;;;0.10;99.90;;;;;;5103176;28;19912;-75
2022/12/16 03:51:42;;;;;;;;;;;-0.10;99.90;;;;;;5103507;28;20206;-75
2022/12/16 03:54:08;;;;;;;;;;;-0.30;99.90;;;;;;5098029;28;19915;-76
2022/12/16 03:56:33;;;;;;;;;;;-0.30;99.90;;;;;;5097149;28;19908;-75
2022/12/16 03:58:59;;;;;;;;;;;-0.10;99.90;;;;;;5096203;27;19924;-75
2022/12/16 04:01:24;;;;;;;;;;;0.00;99.90;;;;;;5110521;28;20263;-75
2022/12/16 04:03:50;;;;;;;;;;;0.10;99.90;;;;;;5110670;28;19912;-74
2022/12/16 04:06:17;;;;;;;;;;;0.20;99.90;;;;;;5098473;28;19908;-76
2022/12/16 04:08:46;;;;;;;;;;;0.20;99.90;;;;;;5089095;27;19962;-75
2022/12/16 04:24:57;;;;;;;;;;;0.20;99.90;;;;;;5097580;28;19989;-75
2022/12/16 04:27:23;;;;;;;;;;;0.20;99.90;;;;;;5101543;28;20248;-75
